Time;durP1;ratioP1;P1;durP2;ratioP2;P2;SDS_P1;SDS_P2;PMS_P1;PMS_P2;Temp;Humidity;BMP_temperature;BMP_pressure;BME280_temperature;BME280_humidity;BME280_pressure;Samples;Min_cycle;Max_cycle;Signal;HPM_P1;HPM_P2
2024/03/07 00:00:36;;;;;;;14.93;9.00;;;;;;;7.16;62.33;99411.94;4909256;29;20526;-92
2024/03/07 00:03:01;;;;;;;14.10;9.07;;;;;;;7.13;62.46;99399.84;4908863;29;20067;-91
2024/03/07 00:05:27;;;;;;;18.50;9.23;;;;;;;7.32;62.38;99415.66;4908846;29;20511;-92
2024/03/07 00:07:53;;;;;;;17.02;9.40;;;;;;;7.14;62.34;99379.22;4893497;29;20080;-91
2024/03/07 00:10:21;;;;;;;14.57;9.05;;;;;;;7.28;62.54;99408.13;4915259;29;20015;-92
2024/03/07 00:12:47;;;;;;;16.65;9.25;;;;;;;7.20;62.52;99388.97;4914954;29;20055;-90
2024/03/07 00:15:13;;;;;;;15.88;9.30;;;;;;;7.17;62.64;99384.91;4913344;29;20123;-90
2024/03/07 00:17:39;;;;;;;15.15;9.10;;;;;;;7.20;62.12;99379.09;4912735;29;20052;-91
2024/03/07 00:20:08;;;;;;;16.98;10.13;;;;;;;7.27;62.65;99387.75;4896028;29;20050;-92
2024/03/07 00:22:37;;;;;;;19.83;9.02;;;;;;;7.28;62.35;99381.34;4912443;29;20139;-91
2024/03/07 00:25:05;;;;;;;21.83;11.63;;;;;;;7.22;62.02;99371.63;4896751;29;20118;-92
2024/03/07 00:27:31;;;;;;;18.25;11.32;;;;;;;7.35;62.19;99389.19;4911518;29;20035;-92
2024/03/07 00:29:58;;;;;;;17.58;10.63;;;;;;;7.36;61.55;99376.59;4910630;29;20042;-92
2024/03/07 00:32:23;;;;;;;15.90;10.02;;;;;;;7.40;61.84;99385.78;4909815;29;20392;-91
2024/03/07 00:34:49;;;;;;;16.95;10.38;;;;;;;7.31;61.87;99366.66;4896868;29;20041;-90
2024/03/07 00:37:18;;;;;;;18.05;9.60;;;;;;;7.53;61.79;99389.97;4902827;29;20035;-92
2024/03/07 00:39:44;;;;;;;16.63;10.18;;;;;;;7.52;61.59;99383.78;4910911;29;20122;-91
2024/03/07 00:42:09;;;;;;;17.52;9.45;;;;;;;7.43;61.38;99361.19;4894580;29;20063;-91
2024/03/07 00:44:35;;;;;;;16.45;10.27;;;;;;;7.54;61.70;99375.53;4909969;29;20063;-91
2024/03/07 00:47:02;;;;;;;17.30;9.43;;;;;;;7.43;61.39;99351.28;4909480;29;20107;-91
2024/03/07 00:49:28;;;;;;;15.57;9.68;;;;;;;7.47;61.16;99359.59;4910193;29;20109;-90
2024/03/07 00:51:54;;;;;;;14.60;9.98;;;;;;;7.49;60.85;99368.19;4915388;29;20019;-93
2024/03/07 00:54:19;;;;;;;16.63;8.98;;;;;;;7.32;60.90;99344.16;4919324;29;20031;-93
2024/03/07 00:56:48;;;;;;;17.50;9.88;;;;;;;7.34;60.61;99343.91;4899335;29;20038;-89
2024/03/07 00:59:15;;;;;;;16.83;9.05;;;;;;;7.32;60.92;99341.47;4916453;29;20031;-92
2024/03/07 01:01:41;;;;;;;14.38;8.57;;;;;;;7.31;60.69;99347.91;4928280;29;20417;-92
2024/03/07 01:04:07;;;;;;;17.50;9.13;;;;;;;7.41;60.89;99358.75;4929147;29;20098;-92
2024/03/07 01:06:33;;;;;;;16.17;9.63;;;;;;;7.40;61.17;99357.09;4926150;29;20028;-92
2024/03/07 01:08:59;;;;;;;19.85;8.73;;;;;;;7.31;60.88;99334.50;4918658;29;20031;-92
2024/03/07 01:11:24;;;;;;;17.63;9.88;;;;;;;7.46;61.20;99358.00;4918500;29;20043;-91
2024/03/07 01:13:50;;;;;;;20.73;9.05;;;;;;;7.43;60.83;99350.47;4921096;29;20059;-92
2024/03/07 01:16:15;;;;;;;13.38;8.15;;;;;;;7.47;60.53;99354.25;4924090;29;20040;-92
2024/03/07 01:18:41;;;;;;;15.48;9.07;;;;;;;7.45;60.85;99340.28;4894977;29;20047;-92
2024/03/07 01:21:08;;;;;;;14.65;8.68;;;;;;;7.31;60.54;99323.78;4919986;29;20561;-92
2024/03/07 01:23:33;;;;;;;13.85;8.90;;;;;;;7.43;60.98;99343.25;4928821;29;20484;-92
2024/03/07 01:25:59;;;;;;;15.75;8.43;;;;;;;7.57;60.17;99348.22;4926831;29;20018;-91
2024/03/07 01:28:29;;;;;;;18.20;8.77;;;;;;;7.49;60.57;99339.56;4928065;29;20134;-91
2024/03/07 01:30:55;;;;;;;19.65;9.25;;;;;;;7.57;60.27;99337.50;4914593;29;20065;-92
2024/03/07 01:33:20;;;;;;;13.40;8.65;;;;;;;7.55;60.41;99335.06;4910734;29;20027;-91
2024/03/07 01:35:46;;;;;;;16.75;8.82;;;;;;;7.48;60.60;99329.91;4911394;29;20094;-92
2024/03/07 01:38:15;;;;;;;15.40;8.77;;;;;;;7.55;60.56;99339.63;4927186;29;20074;-92
2024/03/07 01:40:42;;;;;;;15.30;9.13;;;;;;;7.48;60.31;99332.56;4908877;29;20127;-91
2024/03/07 01:43:10;;;;;;;18.25;9.10;;;;;;;7.58;60.66;99331.09;4893765;29;20286;-91
2024/03/07 01:45:38;;;;;;;16.45;8.93;;;;;;;7.71;60.40;99354.03;4908530;29;20059;-92
2024/03/07 01:48:07;;;;;;;17.50;8.48;;;;;;;7.71;59.86;99346.78;4893786;29;20039;-92
2024/03/07 01:50:33;;;;;;;21.83;9.07;;;;;;;7.64;59.25;99327.41;4920032;28;20035;-92
2024/03/07 01:52:59;;;;;;;15.48;8.52;;;;;;;7.73;59.44;99336.63;4946342;28;20620;-91
2024/03/07 01:55:24;;;;;;;15.13;8.20;;;;;;;7.68;60.06;99323.19;4931700;28;20050;-92
2024/03/07 01:57:50;;;;;;;15.25;8.75;;;;;;;7.61;59.83;99319.84;4946481;28;20043;-92
2024/03/07 02:00:17;;;;;;;15.13;7.82;;;;;;;7.54;60.03;99313.91;4929755;28;20038;-92
2024/03/07 02:02:44;;;;;;;16.83;8.77;;;;;;;7.64;59.63;99322.06;4947192;28;20046;-91
2024/03/07 02:05:10;;;;;;;14.95;8.82;;;;;;;7.61;60.06;99328.69;4938653;28;20070;-92
2024/03/07 02:07:35;;;;;;;13.50;8.15;;;;;;;7.55;59.86;99310.94;4920750;28;20038;-91
2024/03/07 02:10:05;;;;;;;16.63;8.68;;;;;;;7.71;59.85;99328.03;4935803;28;20023;-91
2024/03/07 02:12:31;;;;;;;16.65;8.52;;;;;;;7.78;59.85;99325.13;4917755;29;20043;-92
2024/03/07 02:14:57;;;;;;;14.73;8.65;;;;;;;7.64;59.68;99317.50;4909479;29;20039;-93
2024/03/07 02:17:24;;;;;;;12.65;8.18;;;;;;;7.82;59.30;99345.03;4941928;29;20046;-92
2024/03/07 02:19:50;;;;;;;15.82;8.90;;;;;;;7.65;59.47;99312.94;4924233;29;20043;-91
2024/03/07 02:22:16;;;;;;;13.77;8.95;;;;;;;7.59;59.77;99312.06;4926289;29;20043;-92
2024/03/07 02:24:41;;;;;;;17.63;8.98;;;;;;;7.70;59.75;99326.41;4908404;29;20039;-92
2024/03/07 02:27:09;;;;;;;18.30;9.38;;;;;;;7.56;60.01;99307.22;4909059;29;20592;-93
2024/03/07 02:29:36;;;;;;;15.38;8.95;;;;;;;7.67;59.61;99300.09;4911162;29;20035;-92
2024/03/07 02:32:01;;;;;;;15.20;8.63;;;;;;;7.79;59.82;99334.81;4922235;29;20418;-91
2024/03/07 02:34:27;;;;;;;17.30;8.80;;;;;;;7.65;59.86;99324.47;4891340;29;20075;-91
2024/03/07 02:36:52;;;;;;;12.52;8.40;;;;;;;7.56;59.33;99299.19;4891065;29;20517;-92
2024/03/07 02:39:18;;;;;;;16.23;8.57;;;;;;;7.57;59.76;99298.09;4889522;29;20043;-91
2024/03/07 02:41:43;;;;;;;13.18;8.65;;;;;;;7.74;59.26;99316.81;4890680;29;20031;-92
2024/03/07 02:44:09;;;;;;;14.57;8.35;;;;;;;7.64;59.56;99309.47;4891067;29;20088;-92
2024/03/07 02:46:34;;;;;;;15.45;8.90;;;;;;;7.62;59.84;99322.28;4910540;29;20067;-92
2024/03/07 02:49:00;;;;;;;15.13;8.95;;;;;;;7.61;60.00;99314.50;4895103;29;20573;-91
2024/03/07 02:51:26;;;;;;;18.02;8.77;;;;;;;7.64;59.89;99308.66;4894005;29;20035;-91
2024/03/07 02:53:52;;;;;;;17.05;8.32;;;;;;;7.68;59.76;99323.19;4910245;29;20046;-92
2024/03/07 02:56:17;;;;;;;14.77;9.25;;;;;;;7.74;59.70;99326.69;4909588;29;20035;-91
2024/03/07 02:58:43;;;;;;;13.77;9.18;;;;;;;7.62;59.72;99324.97;4893376;29;20040;-91
2024/03/07 03:01:10;;;;;;;15.40;8.40;;;;;;;7.52;59.69;99299.94;4893638;29;20522;-91
2024/03/07 03:03:36;;;;;;;15.10;8.60;;;;;;;7.63;59.76;99320.41;4925238;29;20028;-91
2024/03/07 03:06:02;;;;;;;20.45;8.63;;;;;;;7.61;60.00;99309.94;4926632;29;20039;-91
2024/03/07 03:08:30;;;;;;;17.40;8.65;;;;;;;7.63;59.90;99337.31;4910224;29;20070;-92
2024/03/07 03:10:56;;;;;;;13.88;8.25;;;;;;;7.44;60.14;99310.00;4909977;29;20550;-93
2024/03/07 03:13:23;;;;;;;14.60;8.50;;;;;;;7.43;60.02;99297.69;4894341;29;20035;-92
2024/03/07 03:15:49;;;;;;;11.75;7.88;;;;;;;7.51;59.61;99309.03;4910021;29;20130;-92
2024/03/07 03:18:14;;;;;;;14.60;8.55;;;;;;;7.40;59.20;99290.16;4893012;29;20036;-92
2024/03/07 03:20:43;;;;;;;17.27;8.68;;;;;;;7.59;59.76;99324.66;4909649;29;20059;-92
2024/03/07 03:23:13;;;;;;;14.55;8.32;;;;;;;7.61;59.91;99325.22;4909716;29;20541;-91
2024/03/07 03:25:39;;;;;;;13.43;8.07;;;;;;;7.54;59.78;99312.00;4895493;29;20087;-92
2024/03/07 03:28:05;;;;;;;15.95;8.85;;;;;;;7.55;60.12;99315.50;4909912;29;20031;-92
2024/03/07 03:30:32;;;;;;;13.25;8.20;;;;;;;7.54;59.50;99324.63;4893142;29;20486;-92
2024/03/07 03:32:58;;;;;;;16.05;8.85;;;;;;;7.34;60.09;99298.38;4894382;29;20040;-92
2024/03/07 03:35:25;;;;;;;15.48;8.80;;;;;;;7.36;59.68;99301.63;4892767;29;20047;-92
2024/03/07 03:37:51;;;;;;;15.18;8.73;;;;;;;7.45;59.98;99310.81;4909343;29;20044;-93
2024/03/07 03:40:16;;;;;;;15.52;8.07;;;;;;;7.46;60.01;99315.94;4893947;29;20108;-92
2024/03/07 03:42:42;;;;;;;15.63;9.50;;;;;;;7.41;59.76;99315.88;4893056;29;20026;-92
2024/03/07 03:45:09;;;;;;;14.13;8.18;;;;;;;7.40;59.66;99298.19;4892863;29;20039;-93
2024/03/07 03:47:35;;;;;;;17.38;9.38;;;;;;;7.57;59.85;99314.19;4892966;29;20035;-92
2024/03/07 03:50:04;;;;;;;12.82;8.23;;;;;;;7.39;59.79;99293.91;4893764;29;20122;-92
2024/03/07 03:52:30;;;;;;;17.17;9.48;;;;;;;7.54;59.85;99312.00;4910768;29;20039;-91
2024/03/07 03:54:56;;;;;;;16.50;8.00;;;;;;;7.49;59.83;99311.94;4892686;29;20035;-92
2024/03/07 03:57:22;;;;;;;18.10;9.73;;;;;;;7.43;60.35;99302.25;4907359;29;20119;-93
2024/03/07 03:59:48;;;;;;;13.23;8.52;;;;;;;7.50;60.26;99305.53;4909715;29;20055;-90
2024/03/07 04:02:13;;;;;;;16.00;8.48;;;;;;;7.47;59.92;99309.53;4908205;29;20072;-91
2024/03/07 04:04:39;;;;;;;19.05;9.55;;;;;;;7.58;60.56;99331.09;4893592;29;20042;-90
2024/03/07 04:07:05;;;;;;;15.95;9.15;;;;;;;7.48;60.36;99313.81;4893384;29;20478;-90
2024/03/07 04:09:31;;;;;;;19.85;9.50;;;;;;;7.40;60.78;99294.69;4892635;29;20039;-92
2024/03/07 04:11:57;;;;;;;16.45;9.73;;;;;;;7.41;60.88;99297.13;4892925;29;20032;-91
2024/03/07 04:14:23;;;;;;;17.35;10.10;;;;;;;7.47;60.98;99300.66;4908041;29;20042;-92
2024/03/07 04:16:48;;;;;;;20.27;9.57;;;;;;;7.49;60.83;99302.06;4892433;29;20503;-91
2024/03/07 04:19:14;;;;;;;17.73;9.15;;;;;;;7.61;60.74;99320.66;4909365;29;20028;-92
2024/03/07 04:21:40;;;;;;;17.52;9.52;;;;;;;7.43;60.78;99294.22;4891628;29;20067;-91
2024/03/07 04:24:05;;;;;;;21.85;10.35;;;;;;;7.37;60.59;99277.25;4892252;29;20043;-92
2024/03/07 04:26:30;;;;;;;18.55;8.95;;;;;;;7.53;60.59;99314.94;4906650;29;20434;-91
2024/03/07 04:28:57;;;;;;;15.90;8.85;;;;;;;7.56;60.72;99317.94;4927276;29;20069;-91
2024/03/07 04:31:23;;;;;;;16.13;10.52;;;;;;;7.43;60.75;99289.66;4923916;29;20036;-92
2024/03/07 04:33:50;;;;;;;12.65;8.27;;;;;;;7.57;60.00;99310.69;4904141;29;20078;-90
2024/03/07 04:36:16;;;;;;;15.40;8.20;;;;;;;7.51;59.66;99300.97;4927585;29;20032;-90
2024/03/07 04:38:45;;;;;;;13.02;8.65;;;;;;;7.52;59.60;99299.94;4942597;29;20055;-90
2024/03/07 04:41:16;;;;;;;19.08;9.88;;;;;;;7.56;59.64;99309.91;4942608;29;20032;-90
2024/03/07 04:43:42;;;;;;;21.23;9.10;;;;;;;7.42;59.96;99297.94;4911527;29;20039;-90
2024/03/07 04:46:08;;;;;;;15.65;9.32;;;;;;;7.38;59.89;99286.91;4959544;29;20027;-91
2024/03/07 04:48:33;;;;;;;15.75;8.57;;;;;;;7.66;59.60;99315.38;4932146;28;20489;-93
2024/03/07 04:50:59;;;;;;;18.25;9.07;;;;;;;7.68;59.50;99318.63;4967660;28;20047;-92
2024/03/07 04:53:24;;;;;;;14.88;9.18;;;;;;;7.67;59.63;99310.81;4919504;28;20047;-91
2024/03/07 04:55:50;;;;;;;14.15;8.90;;;;;;;7.80;59.78;99312.31;4919102;28;20038;-91
2024/03/07 04:58:16;;;;;;;15.95;8.05;;;;;;;7.82;59.27;99313.69;4920523;28;20038;-91
2024/03/07 05:00:41;;;;;;;15.13;8.63;;;;;;;7.96;58.90;99334.72;4938913;28;20416;-92
2024/03/07 05:03:07;;;;;;;20.80;8.63;;;;;;;7.98;58.86;99328.03;4929674;28;20037;-91
2024/03/07 05:05:32;;;;;;;17.48;9.95;;;;;;;7.87;58.97;99315.59;4929486;28;20070;-91
2024/03/07 05:07:58;;;;;;;22.25;9.98;;;;;;;7.93;58.88;99319.13;4929521;28;20527;-93
2024/03/07 05:10:24;;;;;;;17.27;9.75;;;;;;;7.88;58.77;99291.22;4949340;28;20047;-91
2024/03/07 05:12:50;;;;;;;23.25;10.10;;;;;;;8.04;58.43;99324.34;4962705;28;20031;-93
2024/03/07 05:15:15;;;;;;;18.15;9.30;;;;;;;8.01;58.41;99311.47;4946807;28;20039;-92
2024/03/07 05:17:43;;;;;;;18.77;9.95;;;;;;;8.14;58.33;99322.84;4947261;28;20502;-91
2024/03/07 05:20:14;;;;;;;19.13;10.70;;;;;;;8.09;57.76;99313.69;4940526;29;20506;-95
2024/03/07 05:22:44;;;;;;;17.35;9.75;;;;;;;8.21;58.30;99324.25;4935251;28;20409;-91
2024/03/07 05:25:12;;;;;;;21.95;10.63;;;;;;;8.12;58.60;99311.56;4924340;28;20105;-93
2024/03/07 05:27:40;;;;;;;20.05;10.15;;;;;;;8.00;58.50;99309.84;4933755;29;20039;-92
2024/03/07 05:30:11;;;;;;;21.52;10.70;;;;;;;8.36;58.26;99342.34;4917201;29;20035;-92
2024/03/07 05:32:37;;;;;;;19.40;10.55;;;;;;;8.33;58.50;99336.72;4937062;29;20125;-92
2024/03/07 05:35:04;;;;;;;16.23;9.77;;;;;;;8.39;58.36;99330.31;4923535;28;20070;-93
2024/03/07 05:37:33;;;;;;;19.80;10.10;;;;;;;8.38;58.47;99321.44;4945995;29;20050;-92
2024/03/07 05:40:00;;;;;;;18.13;9.70;;;;;;;8.54;57.91;99343.88;4926564;28;20039;-91
2024/03/07 05:42:25;;;;;;;27.52;11.20;;;;;;;8.58;57.36;99326.22;4937293;28;20042;-92
2024/03/07 05:44:51;;;;;;;16.17;9.80;;;;;;;8.64;57.19;99333.25;4921109;28;20121;-92
2024/03/07 05:47:17;;;;;;;18.35;9.40;;;;;;;8.72;57.74;99336.53;4934410;28;20046;-94
2024/03/07 05:49:43;;;;;;;33.50;12.10;;;;;;;8.84;57.48;99343.34;4921685;28;20505;-93
2024/03/07 05:52:09;;;;;;;24.63;11.80;;;;;;;8.97;57.88;99362.75;4926382;28;20057;-93
2024/03/07 05:54:35;;;;;;;16.02;9.65;;;;;;;8.87;56.88;99342.00;4934978;29;20039;-93
2024/03/07 05:57:00;;;;;;;17.52;9.80;;;;;;;8.87;57.06;99334.75;4913267;29;20045;-93
2024/03/07 05:59:29;;;;;;;19.92;10.82;;;;;;;8.94;57.31;99341.78;4910021;29;20422;-93
2024/03/07 06:01:55;;;;;;;20.15;10.10;;;;;;;9.06;56.83;99351.25;4927996;29;20035;-91
2024/03/07 06:04:47;;;;;;;20.20;11.13;;;;;;;9.15;57.09;99364.19;4927114;29;20038;-93
2024/03/07 06:07:13;;;;;;;18.48;11.02;;;;;;;9.05;57.32;99341.59;4922939;29;20039;-94
2024/03/07 06:09:38;;;;;;;20.77;11.50;;;;;;;9.04;57.00;99339.97;4934906;29;20039;-94
2024/03/07 06:12:07;;;;;;;17.15;9.73;;;;;;;8.99;57.05;99348.00;4916042;29;20368;-93
2024/03/07 06:14:33;;;;;;;18.65;10.82;;;;;;;9.30;56.85;99367.78;4925710;28;20513;-93
2024/03/07 06:16:59;;;;;;;30.35;19.70;;;;;;;9.19;57.23;99347.28;4931915;29;20063;-93
2024/03/07 06:19:24;;;;;;;22.05;14.27;;;;;;;9.28;56.81;99351.13;4891944;29;20043;-92
2024/03/07 06:21:52;;;;;;;16.40;10.85;;;;;;;9.26;56.98;99349.78;4922425;29;20503;-93
2024/03/07 06:24:22;;;;;;;19.63;10.02;;;;;;;9.53;56.56;99375.72;4907223;29;20035;-94
2024/03/07 06:26:59;;;;;;;20.58;10.13;;;;;;;9.22;57.12;99335.25;4936221;28;20058;-93
2024/03/07 06:29:27;;;;;;;14.93;10.27;;;;;;;9.43;57.46;99357.66;4913872;28;20039;-92
2024/03/07 06:31:54;;;;;;;17.38;10.32;;;;;;;9.56;57.29;99365.22;4931300;28;20053;-91
2024/03/07 06:34:20;;;;;;;18.83;10.82;;;;;;;9.55;57.19;99352.88;4926605;28;20041;-89
2024/03/07 06:36:45;;;;;;;15.80;10.52;;;;;;;9.76;57.17;99383.34;4959690;28;20034;-90
2024/03/07 06:39:13;;;;;;;15.70;10.48;;;;;;;9.79;57.13;99366.66;4924432;29;20035;-94
2024/03/07 06:41:39;;;;;;;19.50;11.00;;;;;;;9.92;57.46;99389.59;4913929;28;20046;-96
2024/03/07 06:44:05;;;;;;;16.90;10.25;;;;;;;9.71;56.83;99354.56;4932938;29;20035;-93
2024/03/07 06:46:31;;;;;;;19.55;10.32;;;;;;;9.84;56.73;99355.16;4925765;29;20027;-94
2024/03/07 06:48:57;;;;;;;18.58;10.35;;;;;;;9.81;56.29;99361.84;4925665;29;20035;-93
2024/03/07 06:51:23;;;;;;;22.30;10.90;;;;;;;10.00;56.32;99374.81;4910473;29;20532;-93
2024/03/07 06:53:50;;;;;;;24.38;10.68;;;;;;;10.06;56.49;99376.44;4910240;29;20130;-92
2024/03/07 06:56:18;;;;;;;23.77;10.30;;;;;;;10.09;56.60;99373.25;4911224;29;20399;-93
2024/03/07 06:58:45;;;;;;;18.77;10.73;;;;;;;10.09;57.02;99370.53;4929756;29;20039;-91
2024/03/07 07:01:15;;;;;;;20.63;10.85;;;;;;;10.00;57.59;99359.50;4927916;29;20042;-90
2024/03/07 07:07:23;;;;;;;35.50;20.02;;;;;;;10.37;58.05;99396.19;4926170;29;20031;-93
2024/03/07 07:09:51;;;;;;;23.52;13.73;;;;;;;10.34;57.78;99369.81;4936178;29;20133;-94
2024/03/07 07:12:18;;;;;;;24.77;15.45;;;;;;;10.44;57.73;99383.28;4932562;28;20098;-94
2024/03/07 07:14:46;;;;;;;28.95;19.35;;;;;;;10.33;58.29;99368.19;4924210;28;20513;-93
2024/03/07 07:20:23;;;;;;;39.30;20.70;;;;;;;10.49;58.05;99383.28;4897271;29;20130;-93
2024/03/07 07:22:49;;;;;;;22.92;14.00;;;;;;;10.44;58.02;99383.28;4910972;29;20461;-93
2024/03/07 07:25:18;;;;;;;21.90;10.93;;;;;;;10.50;58.36;99386.81;4889857;29;20028;-93
2024/03/07 07:28:16;;;;;;;51.15;26.50;;;;;;;10.50;58.53;99403.75;4902210;29;20083;-93
2024/03/07 07:30:50;;;;;;;28.95;14.30;;;;;;;10.29;58.54;99391.28;4894330;29;20039;-90
2024/03/07 07:33:16;;;;;;;20.55;13.55;;;;;;;10.36;58.74;99389.19;4902391;29;20541;-91
2024/03/07 07:35:41;;;;;;;22.80;11.00;;;;;;;10.52;58.81;99406.16;4889670;29;20040;-90
2024/03/07 07:38:10;;;;;;;20.90;12.32;;;;;;;10.48;59.31;99397.03;4888732;29;20100;-90
2024/03/07 07:40:38;;;;;;;24.70;13.25;;;;;;;10.42;60.07;99390.81;4889247;29;20028;-92
2024/03/07 07:43:03;;;;;;;23.30;14.00;;;;;;;10.44;60.07;99401.34;4889735;29;20061;-92
2024/03/07 07:45:42;;;;;;;24.23;14.75;;;;;;;10.46;61.38;99402.69;4891526;29;20128;-92
2024/03/07 07:48:11;;;;;;;24.27;13.20;;;;;;;10.52;61.64;99408.84;4895163;29;20028;-90
2024/03/07 07:50:51;;;;;;;22.38;12.40;;;;;;;10.51;61.28;99401.88;4924114;28;20043;-93
2024/03/07 07:53:17;;;;;;;24.48;13.40;;;;;;;10.61;62.01;99415.34;4939610;29;20066;-93
2024/03/07 07:55:43;;;;;;;27.17;16.77;;;;;;;10.79;63.17;99437.44;4937078;28;20042;-89
2024/03/07 07:58:14;;;;;;;25.52;14.98;;;;;;;10.76;62.35;99428.00;4919947;28;20035;-95
2024/03/07 08:00:39;;;;;;;22.85;14.23;;;;;;;10.58;63.19;99415.88;4937627;28;20035;-92
2024/03/07 08:03:09;;;;;;;30.88;17.23;;;;;;;10.57;62.39;99416.97;4932902;28;20127;-95
2024/03/07 08:05:35;;;;;;;25.08;14.57;;;;;;;10.60;63.09;99446.03;4951599;28;20034;-95
2024/03/07 08:08:20;;;;;;;20.85;12.40;;;;;;;10.49;62.55;99449.78;4949684;28;20031;-93
2024/03/07 08:10:51;;;;;;;20.75;12.88;;;;;;;10.50;63.38;99452.22;4928104;29;20035;-95
2024/03/07 08:13:21;;;;;;;26.73;16.48;;;;;;;10.27;64.08;99418.50;4930154;28;20038;-93
2024/03/07 08:15:49;;;;;;;36.47;20.30;;;;;;;10.48;63.74;99464.34;4939919;28;20038;-92
2024/03/07 08:18:51;;;;;;;21.83;12.93;;;;;;;10.19;63.36;99432.47;4935368;29;20036;-95
2024/03/07 08:24:39;;;;;;;22.35;13.55;;;;;;;10.31;64.62;99467.22;5142863;23;20060;-96
2024/03/07 08:27:11;;;;;;;50.13;16.52;;;;;;;10.06;65.84;99449.06;4977405;28;20110;-94
2024/03/07 08:29:36;;;;;;;19.27;12.20;;;;;;;10.02;65.83;99446.13;4985876;28;20042;-91
2024/03/07 08:32:02;;;;;;;24.17;12.40;;;;;;;10.15;65.90;99466.34;4967515;28;20041;-91
2024/03/07 08:34:28;;;;;;;21.80;12.48;;;;;;;10.04;66.42;99453.91;4965878;28;20042;-91
2024/03/07 08:36:53;;;;;;;22.92;11.30;;;;;;;10.07;65.92;99450.72;4961625;28;20034;-90
2024/03/07 08:39:24;;;;;;;22.15;11.63;;;;;;;10.07;66.76;99469.53;4961551;28;20057;-92
2024/03/07 08:41:55;;;;;;;19.38;11.25;;;;;;;10.00;66.30;99464.41;4964072;28;20388;-94
2024/03/07 08:44:23;;;;;;;19.13;11.85;;;;;;;10.13;66.35;99479.25;4969764;28;20547;-92
2024/03/07 08:46:48;;;;;;;18.23;11.02;;;;;;;10.04;65.02;99460.13;4984549;28;20409;-94
2024/03/07 08:49:17;;;;;;;25.30;10.85;;;;;;;10.00;65.36;99464.41;4967746;28;20034;-92
2024/03/07 08:51:43;;;;;;;16.15;9.63;;;;;;;9.94;65.98;99459.25;4976843;28;20189;-92
2024/03/07 08:54:09;;;;;;;15.68;9.73;;;;;;;10.04;65.78;99464.66;4965149;28;20039;-93
2024/03/07 08:56:47;;;;;;;15.80;9.85;;;;;;;10.11;65.79;99484.88;4966489;28;20089;-91
2024/03/07 08:59:17;;;;;;;16.08;10.27;;;;;;;9.91;66.16;99458.69;4968891;28;20042;-93
2024/03/07 09:01:43;;;;;;;17.60;11.10;;;;;;;9.99;66.82;99470.84;4968665;28;20107;-94
2024/03/07 09:04:09;;;;;;;16.48;11.10;;;;;;;9.98;66.68;99471.94;4966322;28;20532;-93
2024/03/07 09:06:37;;;;;;;19.73;10.80;;;;;;;9.83;67.26;99494.16;4946076;28;20050;-92
2024/03/07 09:09:03;;;;;;;17.83;10.43;;;;;;;9.69;67.22;99466.09;4978986;28;20474;-92
2024/03/07 09:11:29;;;;;;;18.00;10.35;;;;;;;9.71;67.19;99474.72;4962983;28;20142;-93
2024/03/07 09:13:57;;;;;;;16.15;10.13;;;;;;;9.48;67.97;99484.81;4996499;28;20042;-95
2024/03/07 09:16:39;;;;;;;;;;;;;;;;;;;;;
2024/03/07 09:19:12;;;;;;;18.20;11.10;;;;;;;9.42;69.25;99504.66;4968621;28;20114;-94
2024/03/07 09:21:49;;;;;;;15.07;9.20;;;;;;;9.45;68.01;99484.50;4984060;28;20034;-94
2024/03/07 09:24:15;;;;;;;146.82;65.28;;;;;;;9.30;69.53;99477.16;4968028;28;20591;-92
2024/03/07 09:26:40;;;;;;;24.30;13.63;;;;;;;9.44;68.78;99515.13;4983900;28;20035;-93
2024/03/07 09:29:22;;;;;;;22.23;13.75;;;;;;;9.44;68.81;99488.25;4955957;28;20026;-96
2024/03/07 09:31:53;;;;;;;21.13;11.93;;;;;;;9.42;69.68;99485.00;4972728;28;20038;-96
2024/03/07 09:34:22;;;;;;;21.40;12.75;;;;;;;9.35;68.04;99481.75;4974958;28;20065;-96
2024/03/07 09:37:29;;;;;;;;;;;;;;;;;;;;;
2024/03/07 09:40:04;;;;;;;29.08;16.63;;;;;;;9.48;68.33;99494.72;5002166;28;20034;-96
2024/03/07 09:42:31;;;;;;;19.52;13.30;;;;;;;9.55;68.75;99484.59;4969561;28;20042;-95
2024/03/07 09:45:00;;;;;;;16.23;9.27;;;;;;;9.47;68.44;99480.50;4970073;28;20042;-95
2024/03/07 09:47:26;;;;;;;28.33;14.70;;;;;;;9.60;70.57;99508.78;4967548;28;20065;-93
2024/03/07 09:50:01;;;;;;;17.45;11.18;;;;;;;9.13;70.18;99484.53;4987233;28;20034;-92
2024/03/07 09:52:26;;;;;;;21.45;12.07;;;;;;;9.32;69.37;99480.41;4957019;28;20039;-93
2024/03/07 09:54:52;;;;;;;17.73;10.52;;;;;;;9.30;70.22;99495.97;4982654;28;20113;-93
2024/03/07 09:57:17;;;;;;;15.45;10.02;;;;;;;8.99;71.77;99490.31;4981861;28;20034;-92
2024/03/07 09:59:54;;;;;;;15.05;9.82;;;;;;;9.18;72.62;99506.06;5318365;23;20057;-94
2024/03/07 10:02:20;;;;;;;16.17;9.70;;;;;;;9.33;71.15;99505.38;4974102;28;20037;-93
2024/03/07 10:04:53;;;;;;;12.90;8.73;;;;;;;9.36;72.11;99513.75;4969283;28;20097;-92
2024/03/07 10:07:21;;;;;;;20.30;11.32;;;;;;;9.27;72.37;99481.13;4994442;28;20061;-93
2024/03/07 10:09:47;;;;;;;16.38;10.43;;;;;;;9.37;71.59;99463.50;4977534;28;20073;-93
2024/03/07 10:12:15;;;;;;;16.42;9.73;;;;;;;9.45;70.15;99471.88;4956906;28;20035;-94
2024/03/07 10:15:27;;;;;;;18.63;11.63;;;;;;;9.85;71.44;99502.75;4959439;28;20042;-93
2024/03/07 10:17:53;;;;;;;19.65;9.15;;;;;;;9.95;69.71;99501.22;4955947;28;20050;-91
2024/03/07 10:20:22;;;;;;;17.42;10.70;;;;;;;9.76;69.69;99460.50;4990696;28;20034;-91
2024/03/07 10:22:48;;;;;;;15.20;8.95;;;;;;;10.16;70.35;99489.47;4956642;28;20104;-89
2024/03/07 10:25:34;;;;;;;29.30;18.80;;;;;;;10.49;70.20;99498.25;4976672;28;20030;-90
2024/03/07 10:28:01;;;;;;;15.85;9.32;;;;;;;10.32;70.92;99472.34;4973997;28;20031;-89
2024/03/07 10:30:27;;;;;;;17.50;10.40;;;;;;;10.49;70.10;99455.97;4971368;28;20515;-89
2024/03/07 10:32:57;;;;;;;17.02;9.07;;;;;;;10.82;69.20;99478.13;4996421;28;20046;-89
2024/03/07 10:35:25;;;;;;;20.05;10.00;;;;;;;10.94;69.61;99479.75;4956493;28;20042;-90
2024/03/07 10:37:53;;;;;;;66.40;44.58;;;;;;;10.97;70.76;99490.78;4955083;28;20115;-90
2024/03/07 10:40:22;;;;;;;38.42;24.05;;;;;;;10.78;68.72;99470.84;4960116;28;20480;-90
2024/03/07 10:42:57;;;;;;;34.97;23.65;;;;;;;10.56;68.63;99455.72;4973844;28;20042;-90
2024/03/07 10:45:23;;;;;;;15.32;10.50;;;;;;;10.40;69.09;99459.47;4972075;28;20416;-88
2024/03/07 10:47:56;;;;;;;15.27;9.25;;;;;;;10.42;70.58;99473.47;4979773;28;20031;-90
2024/03/07 10:50:40;;;;;;;17.65;9.95;;;;;;;10.88;69.41;99492.41;4949851;28;20042;-90
2024/03/07 10:53:41;;;;;;;20.15;10.73;;;;;;;11.10;68.65;99482.19;4998688;28;20034;-90
2024/03/07 10:56:28;;;;;;;12.32;8.85;;;;;;;11.18;66.28;99471.94;4981723;28;20073;-89
2024/03/07 10:59:19;;;;;;;12.77;7.97;;;;;;;11.31;64.73;99468.72;4979232;28;20054;-91
2024/03/07 11:02:29;;;;;;;15.00;9.88;;;;;;;11.36;66.23;99468.69;4976304;28;20058;-91
2024/03/07 11:04:55;;;;;;;13.80;7.88;;;;;;;11.22;64.19;99443.38;4898788;29;20697;-88
2024/03/07 11:07:21;;;;;;;18.02;9.90;;;;;;;11.32;65.66;99454.94;4953272;28;20038;-89
2024/03/07 11:09:47;;;;;;;15.13;9.98;;;;;;;11.33;66.37;99445.00;4972506;28;20049;-89
2024/03/07 11:12:13;;;;;;;11.93;7.78;;;;;;;11.26;65.59;99449.84;4962425;28;20042;-92
2024/03/07 11:14:39;;;;;;;14.93;7.25;;;;;;;11.35;62.60;99453.63;4969902;28;20042;-93
2024/03/07 11:20:29;;;;;;;10.23;7.38;;;;;;;10.98;64.42;99454.72;4973855;28;20048;-95
2024/03/07 11:22:55;;;;;;;9.88;7.00;;;;;;;11.18;62.81;99445.00;4970323;28;20073;-94
2024/03/07 11:25:44;;;;;;;15.05;8.07;;;;;;;10.99;64.89;99426.66;4970561;28;20054;-94
2024/03/07 11:28:24;;;;;;;13.48;8.40;;;;;;;11.15;65.67;99459.81;4949512;28;20137;-95
2024/03/07 11:30:58;;;;;;;11.10;7.38;;;;;;;11.33;63.29;99459.28;4940846;28;20042;-95
2024/03/07 11:33:37;;;;;;;;;;;;;;;;;;;;;
2024/03/07 11:36:12;;;;;;;28.20;18.25;;;;;;;11.17;64.42;99433.41;4963273;28;20054;-96
2024/03/07 11:40:07;;;;;;;13.48;8.02;;;;;;;10.96;66.16;99429.91;4970770;28;20056;-94
2024/03/07 11:42:47;;;;;;;14.52;7.78;;;;;;;11.23;63.98;99442.31;4863714;29;20052;-95
2024/03/07 11:45:59;;;;;;;12.25;8.10;;;;;;;11.15;65.27;99445.53;4887574;29;20062;-92
2024/03/07 11:48:24;;;;;;;15.23;9.75;;;;;;;11.18;65.03;99410.75;4946262;29;20051;-95
2024/03/07 11:51:13;;;;;;;15.25;8.13;;;;;;;11.29;65.24;99444.72;4946102;29;20153;-93
2024/03/07 11:53:43;;;;;;;13.93;8.07;;;;;;;11.02;66.62;99441.47;4931311;29;20054;-94